sensor_id;sensor_type;location;lat;lon;timestamp;pressure;altitude;pressure_sealevel;temperature;humidity
79006;BME280;69202;45.498;-73.582;2023-07-24T00:00:54;100687.25;;;22.55;53.40
79006;BME280;69202;45.498;-73.582;2023-07-24T00:03:20;100664.19;;;22.26;51.83
79006;BME280;69202;45.498;-73.582;2023-07-24T00:05:46;100695.31;;;22.31;50.45
79006;BME280;69202;45.498;-73.582;2023-07-24T00:08:11;100515.59;;;21.19;50.28
79006;BME280;69202;45.498;-73.582;2023-07-24T00:10:37;100542.03;;;21.30;52.31
79006;BME280;69202;45.498;-73.582;2023-07-24T00:13:03;100726.97;;;22.39;54.64
79006;BME280;69202;45.498;-73.582;2023-07-24T00:15:29;100577.78;;;21.50;56.35
79006;BME280;69202;45.498;-73.582;2023-07-24T00:17:55;100737.69;;;22.40;56.32
79006;BME280;69202;45.498;-73.582;2023-07-24T00:20:21;100638.88;;;21.68;54.37
79006;BME280;69202;45.498;-73.582;2023-07-24T00:22:47;100679.88;;;21.95;52.59
79006;BME280;69202;45.498;-73.582;2023-07-24T00:25:13;100545.00;;;20.98;51.13
79006;BME280;69202;45.498;-73.582;2023-07-24T00:27:39;100549.66;;;21.02;52.83
79006;BME280;69202;45.498;-73.582;2023-07-24T00:30:05;100675.75;;;21.82;55.18
79006;BME280;69202;45.498;-73.582;2023-07-24T00:32:31;100452.25;;;20.37;57.16
79006;BME280;69202;45.498;-73.582;2023-07-24T00:35:00;100471.00;;;20.61;57.64
79006;BME280;69202;45.498;-73.582;2023-07-24T00:37:25;100737.75;;;22.10;55.91
79006;BME280;69202;45.498;-73.582;2023-07-24T00:39:51;100469.53;;;20.38;53.99
79006;BME280;69202;45.498;-73.582;2023-07-24T00:42:17;100782.59;;;22.00;52.31
79006;BME280;69202;45.498;-73.582;2023-07-24T00:44:43;100532.56;;;20.65;52.79
79006;BME280;69202;45.498;-73.582;2023-07-24T00:47:09;100523.91;;;20.41;55.35
79006;BME280;69202;45.498;-73.582;2023-07-24T00:49:35;100477.19;;;20.31;57.18
79006;BME280;69202;45.498;-73.582;2023-07-24T00:52:01;100634.19;;;21.38;58.74
79006;BME280;69202;45.498;-73.582;2023-07-24T00:54:30;100510.56;;;20.55;59.86
79006;BME280;69202;45.498;-73.582;2023-07-24T00:56:58;100508.53;;;20.35;57.86
79006;BME280;69202;45.498;-73.582;2023-07-24T00:59:24;100692.81;;;21.58;55.53
79006;BME280;69202;45.498;-73.582;2023-07-24T01:01:50;100546.53;;;20.58;54.04
79006;BME280;69202;45.498;-73.582;2023-07-24T01:04:16;100779.81;;;21.80;54.50
79006;BME280;69202;45.498;-73.582;2023-07-24T01:06:43;100767.41;;;21.82;56.46
79006;BME280;69202;45.498;-73.582;2023-07-24T01:09:09;100618.91;;;20.89;58.40
79006;BME280;69202;45.498;-73.582;2023-07-24T01:11:41;100527.13;;;20.17;59.74
79006;BME280;69202;45.498;-73.582;2023-07-24T01:14:27;100782.03;;;21.93;58.03
79006;BME280;69202;45.498;-73.582;2023-07-24T01:16:56;100581.47;;;20.73;56.18
79006;BME280;69202;45.498;-73.582;2023-07-24T01:19:37;100794.97;;;21.93;54.72
79006;BME280;69202;45.498;-73.582;2023-07-24T01:22:30;100796.06;;;21.92;56.15
79006;BME280;69202;45.498;-73.582;2023-07-24T01:27:45;100726.31;;;21.45;59.85
79006;BME280;69202;45.498;-73.582;2023-07-24T01:30:12;100720.81;;;21.40;59.76
79006;BME280;69202;45.498;-73.582;2023-07-24T01:32:39;100647.53;;;20.98;57.60
79006;BME280;69202;45.498;-73.582;2023-07-24T01:35:05;100713.66;;;21.29;55.74
79006;BME280;69202;45.498;-73.582;2023-07-24T01:37:34;100816.41;;;21.80;54.27
79006;BME280;69202;45.498;-73.582;2023-07-24T01:40:00;100815.88;;;21.78;55.85
79006;BME280;69202;45.498;-73.582;2023-07-24T01:42:27;100706.41;;;21.08;57.87
79006;BME280;69202;45.498;-73.582;2023-07-24T01:44:54;100746.38;;;21.36;59.50
79006;BME280;69202;45.498;-73.582;2023-07-24T01:47:21;100808.44;;;21.79;59.68
79006;BME280;69202;45.498;-73.582;2023-07-24T01:49:47;100806.47;;;21.74;57.59
79006;BME280;69202;45.498;-73.582;2023-07-24T01:52:13;100786.84;;;21.40;55.28
79006;BME280;69202;45.498;-73.582;2023-07-24T01:54:39;100820.75;;;21.61;54.63
79006;BME280;69202;45.498;-73.582;2023-07-24T01:57:06;100718.19;;;21.03;56.52
79006;BME280;69202;45.498;-73.582;2023-07-24T01:59:32;100723.41;;;20.99;58.12
79006;BME280;69202;45.498;-73.582;2023-07-24T02:01:58;100806.72;;;21.57;59.89
79006;BME280;69202;45.498;-73.582;2023-07-24T02:04:24;100851.09;;;21.81;60.73
79006;BME280;69202;45.498;-73.582;2023-07-24T02:06:50;100783.25;;;21.35;58.63
79006;BME280;69202;45.498;-73.582;2023-07-24T02:09:19;100691.19;;;20.85;56.64
79006;BME280;69202;45.498;-73.582;2023-07-24T02:11:45;100613.34;;;20.22;54.58
79006;BME280;69202;45.498;-73.582;2023-07-24T02:14:12;100611.13;;;20.18;54.87
79006;BME280;69202;45.498;-73.582;2023-07-24T02:16:39;100482.97;;;19.35;56.76
79006;BME280;69202;45.498;-73.582;2023-07-24T02:19:05;100838.94;;;21.62;58.73
79006;BME280;69202;45.498;-73.582;2023-07-24T02:21:32;100786.19;;;21.18;60.65
79006;BME280;69202;45.498;-73.582;2023-07-24T02:23:58;100676.16;;;20.50;61.48
79006;BME280;69202;45.498;-73.582;2023-07-24T02:26:24;100498.38;;;19.41;60.56
79006;BME280;69202;45.498;-73.582;2023-07-24T02:28:50;100843.53;;;21.46;58.51
79006;BME280;69202;45.498;-73.582;2023-07-24T02:31:16;100675.88;;;20.46;56.29
79006;BME280;69202;45.498;-73.582;2023-07-24T02:33:42;100604.19;;;20.06;55.02
79006;BME280;69202;45.498;-73.582;2023-07-24T02:36:08;100649.09;;;20.27;57.35
79006;BME280;69202;45.498;-73.582;2023-07-24T02:38:34;100871.13;;;21.61;59.12
79006;BME280;69202;45.498;-73.582;2023-07-24T02:41:00;100736.19;;;20.73;60.63
79006;BME280;69202;45.498;-73.582;2023-07-24T02:43:26;100747.00;;;20.90;61.87
79006;BME280;69202;45.498;-73.582;2023-07-24T02:45:52;100708.69;;;20.73;60.93
79006;BME280;69202;45.498;-73.582;2023-07-24T02:48:18;100713.06;;;20.64;58.56
79006;BME280;69202;45.498;-73.582;2023-07-24T02:50:43;100863.66;;;21.52;56.87
79006;BME280;69202;45.498;-73.582;2023-07-24T02:53:09;100870.56;;;21.59;57.71
79006;BME280;69202;45.498;-73.582;2023-07-24T02:55:36;100860.63;;;21.53;59.31
79006;BME280;69202;45.498;-73.582;2023-07-24T02:58:02;100743.91;;;20.82;60.62
79006;BME280;69202;45.498;-73.582;2023-07-24T03:00:28;100858.44;;;21.55;61.99
79006;BME280;69202;45.498;-73.582;2023-07-24T03:02:54;100875.31;;;21.79;62.94
79006;BME280;69202;45.498;-73.582;2023-07-24T03:05:20;100895.97;;;21.82;61.45
79006;BME280;69202;45.498;-73.582;2023-07-24T03:07:46;100854.63;;;21.61;58.72
79006;BME280;69202;45.498;-73.582;2023-07-24T03:10:11;100874.38;;;21.48;56.64
79006;BME280;69202;45.498;-73.582;2023-07-24T03:12:37;100714.88;;;20.43;56.03
79006;BME280;69202;45.498;-73.582;2023-07-24T03:15:04;100886.53;;;21.63;57.86
79006;BME280;69202;45.498;-73.582;2023-07-24T03:17:30;100752.91;;;20.67;59.97
79006;BME280;69202;45.498;-73.582;2023-07-24T03:19:55;100822.75;;;21.23;61.19
79006;BME280;69202;45.498;-73.582;2023-07-24T03:22:21;100833.84;;;21.33;62.01
79006;BME280;69202;45.498;-73.582;2023-07-24T03:24:47;100838.25;;;21.29;62.83
79006;BME280;69202;45.498;-73.582;2023-07-24T03:27:13;100900.63;;;21.76;60.55
79006;BME280;69202;45.498;-73.582;2023-07-24T03:29:39;100784.69;;;20.95;58.42
79006;BME280;69202;45.498;-73.582;2023-07-24T03:32:07;100739.44;;;20.65;56.63
79006;BME280;69202;45.498;-73.582;2023-07-24T03:34:33;100900.47;;;21.41;57.91
79006;BME280;69202;45.498;-73.582;2023-07-24T03:36:59;100901.41;;;21.61;59.75
79006;BME280;69202;45.498;-73.582;2023-07-24T03:39:25;100858.88;;;21.27;61.20
79006;BME280;69202;45.498;-73.582;2023-07-24T03:41:50;100907.16;;;21.60;62.66
79006;BME280;69202;45.498;-73.582;2023-07-24T03:44:16;100918.50;;;21.69;62.59
79006;BME280;69202;45.498;-73.582;2023-07-24T03:46:42;100915.16;;;21.67;60.47
79006;BME280;69202;45.498;-73.582;2023-07-24T03:49:08;100801.69;;;20.87;58.50
79006;BME280;69202;45.498;-73.582;2023-07-24T03:51:34;100793.56;;;20.65;56.27
79006;BME280;69202;45.498;-73.582;2023-07-24T03:54:00;100930.78;;;21.51;57.40
79006;BME280;69202;45.498;-73.582;2023-07-24T03:56:26;100861.94;;;20.98;59.37
79006;BME280;69202;45.498;-73.582;2023-07-24T03:58:52;100928.81;;;21.46;61.04
79006;BME280;69202;45.498;-73.582;2023-07-24T04:01:18;100926.66;;;21.48;62.47
79006;BME280;69202;45.498;-73.582;2023-07-24T04:03:45;100947.63;;;21.59;63.33
79006;BME280;69202;45.498;-73.582;2023-07-24T04:06:11;100930.28;;;21.64;63.60
79006;BME280;69202;45.498;-73.582;2023-07-24T04:08:37;100928.03;;;21.56;61.42
79006;BME280;69202;45.498;-73.582;2023-07-24T04:11:02;100724.03;;;20.27;58.97
79006;BME280;69202;45.498;-73.582;2023-07-24T04:13:30;100912.22;;;21.31;57.06
79006;BME280;69202;45.498;-73.582;2023-07-24T04:15:56;100860.44;;;20.81;58.45
79006;BME280;69202;45.498;-73.582;2023-07-24T04:18:23;100921.59;;;21.35;60.19
79006;BME280;69202;45.498;-73.582;2023-07-24T04:20:49;100939.53;;;21.43;61.76
79006;BME280;69202;45.498;-73.582;2023-07-24T04:23:14;100908.38;;;21.27;63.01
79006;BME280;69202;45.498;-73.582;2023-07-24T04:25:40;100913.34;;;21.35;62.71
79006;BME280;69202;45.498;-73.582;2023-07-24T04:28:06;100885.19;;;21.18;60.12
79006;BME280;69202;45.498;-73.582;2023-07-24T04:30:32;100890.69;;;21.18;57.93
79006;BME280;69202;45.498;-73.582;2023-07-24T04:32:58;100953.03;;;21.44;56.88
79006;BME280;69202;45.498;-73.582;2023-07-24T04:35:26;100793.72;;;20.48;58.57
79006;BME280;69202;45.498;-73.582;2023-07-24T04:37:52;100949.16;;;21.45;60.45
79006;BME280;69202;45.498;-73.582;2023-07-24T04:40:18;100645.06;;;19.65;61.67
79006;BME280;69202;45.498;-73.582;2023-07-24T04:42:44;100964.09;;;21.54;63.23
79006;BME280;69202;45.498;-73.582;2023-07-24T04:45:10;100952.31;;;21.59;63.84
79006;BME280;69202;45.498;-73.582;2023-07-24T04:47:36;100665.59;;;19.95;63.99
79006;BME280;69202;45.498;-73.582;2023-07-24T04:50:03;100958.16;;;21.73;62.07
79006;BME280;69202;45.498;-73.582;2023-07-24T04:52:29;100961.75;;;21.78;59.20
79006;BME280;69202;45.498;-73.582;2023-07-24T04:54:55;100683.94;;;19.89;56.70
79006;BME280;69202;45.498;-73.582;2023-07-24T04:57:21;100804.78;;;20.58;57.57
79006;BME280;69202;45.498;-73.582;2023-07-24T04:59:47;100827.25;;;20.87;59.29
79006;BME280;69202;45.498;-73.582;2023-07-24T05:02:13;100911.19;;;21.42;60.79
79006;BME280;69202;45.498;-73.582;2023-07-24T05:04:39;100754.88;;;20.34;61.76
79006;BME280;69202;45.498;-73.582;2023-07-24T05:07:07;100949.31;;;21.71;62.75
79006;BME280;69202;45.498;-73.582;2023-07-24T05:09:32;100795.78;;;20.68;63.69
79006;BME280;69202;45.498;-73.582;2023-07-24T05:11:58;100952.34;;;21.69;62.42
79006;BME280;69202;45.498;-73.582;2023-07-24T05:14:24;100886.38;;;21.27;59.83
79006;BME280;69202;45.498;-73.582;2023-07-24T05:16:50;100873.56;;;21.11;57.85
79006;BME280;69202;45.498;-73.582;2023-07-24T05:19:16;100723.06;;;20.06;58.17
79006;BME280;69202;45.498;-73.582;2023-07-24T05:21:42;100780.31;;;20.57;59.73
79006;BME280;69202;45.498;-73.582;2023-07-24T05:24:08;100844.91;;;21.01;61.14
79006;BME280;69202;45.498;-73.582;2023-07-24T05:26:34;100737.56;;;20.34;62.15
79006;BME280;69202;45.498;-73.582;2023-07-24T05:29:00;100965.28;;;21.74;62.87
79006;BME280;69202;45.498;-73.582;2023-07-24T05:31:25;100702.56;;;20.19;60.70
79006;BME280;69202;45.498;-73.582;2023-07-24T05:33:51;100899.34;;;21.37;58.61
79006;BME280;69202;45.498;-73.582;2023-07-24T05:36:17;100888.72;;;21.13;56.80
79006;BME280;69202;45.498;-73.582;2023-07-24T05:38:43;100816.41;;;20.70;58.24
79006;BME280;69202;45.498;-73.582;2023-07-24T05:41:09;100912.44;;;21.24;60.15
79006;BME280;69202;45.498;-73.582;2023-07-24T05:43:35;100881.56;;;21.12;61.42
79006;BME280;69202;45.498;-73.582;2023-07-24T05:46:01;100906.91;;;21.19;62.72
79006;BME280;69202;45.498;-73.582;2023-07-24T05:48:27;100844.78;;;20.81;63.46
79006;BME280;69202;45.498;-73.582;2023-07-24T05:50:53;100774.47;;;20.43;64.55
79006;BME280;69202;45.498;-73.582;2023-07-24T05:53:19;100945.97;;;21.64;64.27
79006;BME280;69202;45.498;-73.582;2023-07-24T05:55:44;100834.47;;;20.98;62.29
79006;BME280;69202;45.498;-73.582;2023-07-24T05:58:10;100939.38;;;21.59;59.98
79006;BME280;69202;45.498;-73.582;2023-07-24T06:00:36;100935.19;;;21.57;58.07
79006;BME280;69202;45.498;-73.582;2023-07-24T06:03:03;100820.09;;;20.86;59.67
79006;BME280;69202;45.498;-73.582;2023-07-24T06:05:29;100895.72;;;21.26;60.94
79006;BME280;69202;45.498;-73.582;2023-07-24T06:07:55;100878.84;;;21.17;62.39
79006;BME280;69202;45.498;-73.582;2023-07-24T06:10:21;100940.97;;;21.55;63.56
79006;BME280;69202;45.498;-73.582;2023-07-24T06:12:47;100916.97;;;21.41;64.37
79006;BME280;69202;45.498;-73.582;2023-07-24T06:15:13;100772.34;;;20.55;63.80
79006;BME280;69202;45.498;-73.582;2023-07-24T06:17:39;100728.44;;;20.28;61.10
79006;BME280;69202;45.498;-73.582;2023-07-24T06:20:06;100719.44;;;20.01;59.19
79006;BME280;69202;45.498;-73.582;2023-07-24T06:22:32;100838.72;;;20.79;58.84
79006;BME280;69202;45.498;-73.582;2023-07-24T06:24:58;100769.97;;;20.37;61.12
79006;BME280;69202;45.498;-73.582;2023-07-24T06:27:24;100829.94;;;20.77;61.80
79006;BME280;69202;45.498;-73.582;2023-07-24T06:29:50;100764.88;;;20.45;63.07
79006;BME280;69202;45.498;-73.582;2023-07-24T06:32:16;100899.84;;;21.28;63.74
79006;BME280;69202;45.498;-73.582;2023-07-24T06:34:41;100887.75;;;21.29;64.31
79006;BME280;69202;45.498;-73.582;2023-07-24T06:37:07;100835.56;;;20.97;62.11
79006;BME280;69202;45.498;-73.582;2023-07-24T06:39:33;100910.94;;;21.44;59.78
79006;BME280;69202;45.498;-73.582;2023-07-24T06:41:59;100715.91;;;20.05;58.68
79006;BME280;69202;45.498;-73.582;2023-07-24T06:44:25;100625.38;;;19.46;59.47
79006;BME280;69202;45.498;-73.582;2023-07-24T06:46:53;100922.75;;;21.44;60.77
79006;BME280;69202;45.498;-73.582;2023-07-24T06:49:19;100928.88;;;21.56;62.30
79006;BME280;69202;45.498;-73.582;2023-07-24T06:51:45;100909.81;;;21.45;62.99
79006;BME280;69202;45.498;-73.582;2023-07-24T06:54:11;100931.38;;;21.58;63.63
79006;BME280;69202;45.498;-73.582;2023-07-24T06:56:37;100881.97;;;21.31;64.31
79006;BME280;69202;45.498;-73.582;2023-07-24T06:59:03;100842.50;;;21.10;64.50
79006;BME280;69202;45.498;-73.582;2023-07-24T07:01:29;100854.94;;;21.18;61.86
79006;BME280;69202;45.498;-73.582;2023-07-24T07:03:55;100895.22;;;21.39;59.38
79006;BME280;69202;45.498;-73.582;2023-07-24T07:06:20;100785.53;;;20.53;58.42
79006;BME280;69202;45.498;-73.582;2023-07-24T07:08:46;100927.75;;;21.52;58.70
79006;BME280;69202;45.498;-73.582;2023-07-24T07:11:12;100848.16;;;20.88;60.89
79006;BME280;69202;45.498;-73.582;2023-07-24T07:13:39;100771.75;;;20.48;62.11
79006;BME280;69202;45.498;-73.582;2023-07-24T07:16:05;100804.03;;;20.68;63.12
79006;BME280;69202;45.498;-73.582;2023-07-24T07:18:31;100667.91;;;19.76;63.94
79006;BME280;69202;45.498;-73.582;2023-07-24T07:20:56;100883.00;;;21.20;64.46
79006;BME280;69202;45.498;-73.582;2023-07-24T07:23:22;100702.56;;;20.19;64.88
79006;BME280;69202;45.498;-73.582;2023-07-24T07:25:50;100939.94;;;21.67;65.22
79006;BME280;69202;45.498;-73.582;2023-07-24T07:28:16;100783.91;;;20.62;63.21
79006;BME280;69202;45.498;-73.582;2023-07-24T07:30:43;100938.16;;;21.45;60.76
79006;BME280;69202;45.498;-73.582;2023-07-24T07:33:09;100915.44;;;21.23;58.81
79006;BME280;69202;45.498;-73.582;2023-07-24T07:35:36;100959.06;;;21.41;60.25
79006;BME280;69202;45.498;-73.582;2023-07-24T07:38:02;100964.56;;;21.41;61.42
79006;BME280;69202;45.498;-73.582;2023-07-24T07:40:29;100972.00;;;21.41;63.14
79006;BME280;69202;45.498;-73.582;2023-07-24T07:42:56;100925.56;;;21.12;64.05
79006;BME280;69202;45.498;-73.582;2023-07-24T07:45:23;100973.09;;;21.45;65.21
79006;BME280;69202;45.498;-73.582;2023-07-24T07:47:49;100964.84;;;21.40;65.73
79006;BME280;69202;45.498;-73.582;2023-07-24T07:50:15;100788.66;;;20.40;65.42
79006;BME280;69202;45.498;-73.582;2023-07-24T07:52:41;100826.22;;;20.61;63.03
79006;BME280;69202;45.498;-73.582;2023-07-24T07:55:08;100974.75;;;21.41;60.56
79006;BME280;69202;45.498;-73.582;2023-07-24T07:57:35;100892.41;;;20.92;59.52
79006;BME280;69202;45.498;-73.582;2023-07-24T08:00:05;100811.66;;;20.29;61.08
79006;BME280;69202;45.498;-73.582;2023-07-24T08:02:31;100838.56;;;20.54;63.09
79006;BME280;69202;45.498;-73.582;2023-07-24T08:04:58;100959.81;;;21.26;64.05
79006;BME280;69202;45.498;-73.582;2023-07-24T08:07:24;100839.59;;;20.48;65.07
79006;BME280;69202;45.498;-73.582;2023-07-24T08:09:50;100893.25;;;20.92;65.62
79006;BME280;69202;45.498;-73.582;2023-07-24T08:12:16;100979.16;;;21.42;65.99
79006;BME280;69202;45.498;-73.582;2023-07-24T08:14:42;100974.19;;;21.44;66.20
79006;BME280;69202;45.498;-73.582;2023-07-24T08:17:08;100945.41;;;21.19;65.01
79006;BME280;69202;45.498;-73.582;2023-07-24T08:19:34;100856.97;;;20.58;62.36
79006;BME280;69202;45.498;-73.582;2023-07-24T08:22:00;100760.47;;;19.85;60.00
79006;BME280;69202;45.498;-73.582;2023-07-24T08:24:26;100972.19;;;21.29;59.97
79006;BME280;69202;45.498;-73.582;2023-07-24T08:26:52;100690.34;;;19.41;62.00
79006;BME280;69202;45.498;-73.582;2023-07-24T08:29:18;100923.19;;;20.89;63.60
79006;BME280;69202;45.498;-73.582;2023-07-24T08:31:43;100777.50;;;19.87;64.45
79006;BME280;69202;45.498;-73.582;2023-07-24T08:34:09;100630.97;;;19.02;65.01
79006;BME280;69202;45.498;-73.582;2023-07-24T08:36:35;100877.00;;;20.54;66.01
79006;BME280;69202;45.498;-73.582;2023-07-24T08:39:03;100904.88;;;20.67;66.39
79006;BME280;69202;45.498;-73.582;2023-07-24T08:41:29;100810.63;;;20.08;65.96
79006;BME280;69202;45.498;-73.582;2023-07-24T08:43:56;100998.63;;;21.35;63.27
79006;BME280;69202;45.498;-73.582;2023-07-24T08:46:22;100969.16;;;20.98;60.53
79006;BME280;69202;45.498;-73.582;2023-07-24T08:48:49;100854.38;;;20.14;59.75
79006;BME280;69202;45.498;-73.582;2023-07-24T08:51:15;101024.88;;;21.16;61.48
79006;BME280;69202;45.498;-73.582;2023-07-24T08:53:43;100856.47;;;20.07;63.01
79006;BME280;69202;45.498;-73.582;2023-07-24T08:56:10;100871.13;;;20.18;64.64
79006;BME280;69202;45.498;-73.582;2023-07-24T08:58:37;100915.59;;;20.42;65.41
79006;BME280;69202;45.498;-73.582;2023-07-24T09:01:05;100899.72;;;20.44;66.30
79006;BME280;69202;45.498;-73.582;2023-07-24T09:03:32;101024.44;;;21.29;66.77
79006;BME280;69202;45.498;-73.582;2023-07-24T09:05:58;101005.84;;;21.14;67.08
79006;BME280;69202;45.498;-73.582;2023-07-24T09:08:37;100930.47;;;20.73;66.27
79006;BME280;69202;45.498;-73.582;2023-07-24T09:11:05;100987.75;;;20.86;63.52
79006;BME280;69202;45.498;-73.582;2023-07-24T09:13:35;100958.31;;;20.82;60.89
79006;BME280;69202;45.498;-73.582;2023-07-24T09:16:01;100902.53;;;20.27;59.92
79006;BME280;69202;45.498;-73.582;2023-07-24T09:18:38;101024.53;;;21.12;61.93
79006;BME280;69202;45.498;-73.582;2023-07-24T09:21:05;101023.72;;;21.12;63.98
79006;BME280;69202;45.498;-73.582;2023-07-24T09:23:30;100990.88;;;20.95;64.68
79006;BME280;69202;45.498;-73.582;2023-07-24T09:25:56;100966.50;;;20.77;65.73
79006;BME280;69202;45.498;-73.582;2023-07-24T09:28:22;100979.81;;;20.90;65.78
79006;BME280;69202;45.498;-73.582;2023-07-24T09:30:53;100946.91;;;20.68;62.97
79006;BME280;69202;45.498;-73.582;2023-07-24T09:33:22;101000.72;;;20.91;60.57
79006;BME280;69202;45.498;-73.582;2023-07-24T09:35:59;101013.72;;;21.00;61.45
79006;BME280;69202;45.498;-73.582;2023-07-24T09:38:25;100810.59;;;19.76;62.79
79006;BME280;69202;45.498;-73.582;2023-07-24T09:40:52;100911.41;;;20.34;64.25
79006;BME280;69202;45.498;-73.582;2023-07-24T09:43:20;101041.41;;;21.21;65.25
79006;BME280;69202;45.498;-73.582;2023-07-24T09:45:47;101042.31;;;21.26;66.02
79006;BME280;69202;45.498;-73.582;2023-07-24T09:48:14;100876.25;;;20.36;66.30
79006;BME280;69202;45.498;-73.582;2023-07-24T09:50:42;100940.44;;;20.52;66.58
79006;BME280;69202;45.498;-73.582;2023-07-24T09:53:18;101041.63;;;21.46;66.68
79006;BME280;69202;45.498;-73.582;2023-07-24T09:55:56;100966.78;;;21.07;65.50
79006;BME280;69202;45.498;-73.582;2023-07-24T09:58:24;100862.38;;;20.43;62.59
79006;BME280;69202;45.498;-73.582;2023-07-24T10:00:52;101043.31;;;21.47;60.15
79006;BME280;69202;45.498;-73.582;2023-07-24T10:03:19;101042.44;;;21.42;59.11
79006;BME280;69202;45.498;-73.582;2023-07-24T10:05:46;101047.66;;;21.43;61.03
79006;BME280;69202;45.498;-73.582;2023-07-24T10:08:15;101053.97;;;21.39;62.32
79006;BME280;69202;45.498;-73.582;2023-07-24T10:10:42;101011.44;;;21.24;63.39
79006;BME280;69202;45.498;-73.582;2023-07-24T10:13:09;100830.25;;;20.22;63.82
79006;BME280;69202;45.498;-73.582;2023-07-24T10:15:40;100995.47;;;21.21;64.96
79006;BME280;69202;45.498;-73.582;2023-07-24T10:18:08;101059.44;;;21.71;65.51
79006;BME280;69202;45.498;-73.582;2023-07-24T10:20:35;101029.91;;;21.61;65.51
79006;BME280;69202;45.498;-73.582;2023-07-24T10:23:02;101071.94;;;21.88;65.08
79006;BME280;69202;45.498;-73.582;2023-07-24T10:25:33;100985.97;;;21.34;64.61
79006;BME280;69202;45.498;-73.582;2023-07-24T10:28:07;100977.16;;;21.32;61.70
79006;BME280;69202;45.498;-73.582;2023-07-24T10:30:40;101075.00;;;21.97;58.54
79006;BME280;69202;45.498;-73.582;2023-07-24T10:33:20;100986.28;;;21.38;56.77
79006;BME280;69202;45.498;-73.582;2023-07-24T10:35:49;101083.50;;;21.90;59.02
79006;BME280;69202;45.498;-73.582;2023-07-24T10:38:16;101081.03;;;21.94;60.53
79006;BME280;69202;45.498;-73.582;2023-07-24T10:40:44;101079.38;;;21.93;61.54
79006;BME280;69202;45.498;-73.582;2023-07-24T10:43:13;101069.22;;;21.99;62.53
79006;BME280;69202;45.498;-73.582;2023-07-24T10:48:12;101048.28;;;22.55;61.44
79006;BME280;69202;45.498;-73.582;2023-07-24T10:50:40;101036.81;;;23.55;58.95
79006;BME280;69202;45.498;-73.582;2023-07-24T10:53:07;100898.28;;;23.43;56.75
79006;BME280;69202;45.498;-73.582;2023-07-24T10:55:33;100993.59;;;24.69;54.51
79006;BME280;69202;45.498;-73.582;2023-07-24T10:57:59;100966.00;;;25.03;51.35
79006;BME280;69202;45.498;-73.582;2023-07-24T11:00:26;101062.97;;;26.09;47.76
79006;BME280;69202;45.498;-73.582;2023-07-24T11:02:54;100974.59;;;25.02;46.61
79006;BME280;69202;45.498;-73.582;2023-07-24T11:05:21;100891.28;;;23.81;47.52
79006;BME280;69202;45.498;-73.582;2023-07-24T11:07:48;100819.81;;;22.84;50.64
79006;BME280;69202;45.498;-73.582;2023-07-24T11:10:21;101055.25;;;24.05;53.06
79006;BME280;69202;45.498;-73.582;2023-07-24T11:12:47;101058.88;;;23.90;54.69
79006;BME280;69202;45.498;-73.582;2023-07-24T11:15:14;101032.41;;;23.54;56.06
79006;BME280;69202;45.498;-73.582;2023-07-24T11:17:41;100772.88;;;21.62;57.51
79006;BME280;69202;45.498;-73.582;2023-07-24T11:20:14;101095.66;;;23.71;58.56
79006;BME280;69202;45.498;-73.582;2023-07-24T11:22:43;100813.41;;;21.97;58.72
79006;BME280;69202;45.498;-73.582;2023-07-24T11:25:10;101098.41;;;23.60;58.93
79006;BME280;69202;45.498;-73.582;2023-07-24T11:27:43;101103.91;;;23.55;56.68
79006;BME280;69202;45.498;-73.582;2023-07-24T11:30:18;101093.69;;;23.36;54.22
79006;BME280;69202;45.498;-73.582;2023-07-24T11:32:44;101039.03;;;22.92;52.42
79006;BME280;69202;45.498;-73.582;2023-07-24T11:35:11;101099.19;;;23.20;53.05
79006;BME280;69202;45.498;-73.582;2023-07-24T11:37:38;101075.72;;;23.02;55.13
79006;BME280;69202;45.498;-73.582;2023-07-24T11:40:04;101057.50;;;22.86;56.60
79006;BME280;69202;45.498;-73.582;2023-07-24T11:42:45;101098.38;;;23.20;57.83
79006;BME280;69202;45.498;-73.582;2023-07-24T11:45:11;101100.56;;;23.23;58.81
79006;BME280;69202;45.498;-73.582;2023-07-24T11:47:45;101097.28;;;23.26;59.50
79006;BME280;69202;45.498;-73.582;2023-07-24T11:50:12;100962.22;;;22.28;60.15
79006;BME280;69202;45.498;-73.582;2023-07-24T11:52:49;101096.47;;;23.25;57.59
79006;BME280;69202;45.498;-73.582;2023-07-24T11:55:29;101096.44;;;23.20;54.97
79006;BME280;69202;45.498;-73.582;2023-07-24T11:57:57;101111.88;;;23.11;54.02
79006;BME280;69202;45.498;-73.582;2023-07-24T12:00:23;101085.06;;;22.91;55.03
79006;BME280;69202;45.498;-73.582;2023-07-24T12:02:50;100921.63;;;21.98;56.86
79006;BME280;69202;45.498;-73.582;2023-07-24T12:05:16;101112.69;;;23.12;58.08
79006;BME280;69202;45.498;-73.582;2023-07-24T12:07:43;100989.00;;;22.37;58.85
79006;BME280;69202;45.498;-73.582;2023-07-24T12:10:12;100974.97;;;22.44;59.77
79006;BME280;69202;45.498;-73.582;2023-07-24T12:12:45;100772.66;;;21.11;57.54
79006;BME280;69202;45.498;-73.582;2023-07-24T12:15:12;100936.75;;;21.95;55.07
79006;BME280;69202;45.498;-73.582;2023-07-24T12:17:42;100973.25;;;22.28;53.58
79006;BME280;69202;45.498;-73.582;2023-07-24T12:20:08;101005.81;;;22.41;54.13
79006;BME280;69202;45.498;-73.582;2023-07-24T12:22:38;100807.31;;;21.07;55.89
79006;BME280;69202;45.498;-73.582;2023-07-24T12:25:05;100866.13;;;21.48;57.17
79006;BME280;69202;45.498;-73.582;2023-07-24T12:27:32;101003.06;;;22.41;58.67
79006;BME280;69202;45.498;-73.582;2023-07-24T12:29:58;101045.28;;;22.67;59.43
79006;BME280;69202;45.498;-73.582;2023-07-24T12:32:24;101091.72;;;23.00;59.64
79006;BME280;69202;45.498;-73.582;2023-07-24T12:34:51;101100.56;;;23.18;58.54